Time;durP1;ratioP1;P1;durP2;ratioP2;P2;SDS_P1;SDS_P2;PMS_P1;PMS_P2;Temp;Humidity;BMP_temperature;BMP_pressure;BME280_temperature;BME280_humidity;BME280_pressure;Samples;Min_cycle;Max_cycle;Signal;HPM_P1;HPM_P2
2021/08/03 00:00:14;;;;;;;4.55;2.28;;;17.10;1.00;;;;;;5054522;28;20066;-81
2021/08/03 00:02:44;;;;;;;5.78;2.30;;;17.10;1.00;;;;;;5052637;28;20047;-81
2021/08/03 00:05:13;;;;;;;3.83;2.20;;;17.00;1.00;;;;;;5051504;28;20025;-81
2021/08/03 00:07:39;;;;;;;4.55;1.95;;;16.90;1.00;;;;;;5056604;28;20025;-81
2021/08/03 00:10:06;;;;;;;3.95;2.17;;;16.90;1.00;;;;;;5054703;28;20025;-81
2021/08/03 00:12:31;;;;;;;3.50;2.38;;;16.90;1.00;;;;;;5054978;28;20029;-81
2021/08/03 00:14:58;;;;;;;3.45;2.08;;;16.90;1.00;;;;;;5054062;28;20028;-79
2021/08/03 00:17:25;;;;;;;3.67;2.58;;;16.80;1.00;;;;;;5049807;28;20038;-81
2021/08/03 00:19:52;;;;;;;3.58;2.10;;;16.90;1.00;;;;;;5068228;28;20028;-81
2021/08/03 00:22:20;;;;;;;4.28;2.30;;;16.90;1.00;;;;;;5053369;28;20547;-81
2021/08/03 00:24:48;;;;;;;3.40;2.58;;;16.90;1.00;;;;;;5053500;28;20043;-81
2021/08/03 00:27:14;;;;;;;4.00;2.42;;;16.80;1.00;;;;;;5054430;28;20451;-81
2021/08/03 00:29:40;;;;;;;4.28;2.25;;;16.80;1.00;;;;;;5050471;28;20029;-81
2021/08/03 00:32:07;;;;;;;3.78;2.10;;;16.70;1.00;;;;;;5052005;28;20028;-81
2021/08/03 00:34:36;;;;;;;4.60;2.10;;;16.70;1.00;;;;;;5056159;28;20031;-81
2021/08/03 00:37:03;;;;;;;2.95;1.92;;;16.60;1.00;;;;;;5044130;28;20036;-80
2021/08/03 00:39:28;;;;;;;4.90;2.33;;;16.50;1.00;;;;;;5054300;28;20044;-81
2021/08/03 00:41:58;;;;;;;3.90;1.98;;;16.50;1.00;;;;;;5053758;28;20066;-81
2021/08/03 00:44:42;;;;;;;2.38;2.03;;;16.50;1.00;;;;;;5033963;28;20444;-80
2021/08/03 00:47:09;;;;;;;3.50;2.05;;;16.50;1.00;;;;;;5051317;28;20428;-81
2021/08/03 00:49:35;;;;;;;4.90;2.30;;;16.40;1.00;;;;;;5056312;28;20432;-81
2021/08/03 00:52:03;;;;;;;6.03;2.50;;;16.30;1.00;;;;;;5053927;28;20031;-81
2021/08/03 00:54:29;;;;;;;3.67;2.30;;;16.30;1.00;;;;;;5054324;28;20029;-81
2021/08/03 00:56:54;;;;;;;2.20;2.00;;;16.30;1.00;;;;;;5053831;28;20032;-81
2021/08/03 00:59:20;;;;;;;2.63;2.20;;;16.30;1.00;;;;;;5048185;28;20472;-81
2021/08/03 01:01:45;;;;;;;3.50;2.40;;;16.30;1.00;;;;;;5055817;28;20386;-81
2021/08/03 01:04:11;;;;;;;2.53;1.95;;;16.10;1.00;;;;;;5052223;28;20120;-81
2021/08/03 01:06:43;;;;;;;6.57;2.80;;;16.10;1.00;;;;;;5054063;28;20025;-80
2021/08/03 01:09:37;;;;;;;4.38;2.40;;;16.10;1.00;;;;;;5054276;28;20086;-81
2021/08/03 01:12:24;;;;;;;6.03;2.15;;;16.10;1.00;;;;;;5053613;28;20036;-81
2021/08/03 01:15:13;;;;;;;4.15;2.28;;;16.10;1.00;;;;;;5052845;28;20043;-81
2021/08/03 01:18:25;;;;;;;2.88;2.20;;;16.10;1.00;;;;;;5039042;28;20033;-81
2021/08/03 01:21:25;;;;;;;4.85;2.63;;;16.20;1.00;;;;;;5045442;28;20046;-81
2021/08/03 01:24:32;;;;;;;3.75;1.98;;;16.10;1.00;;;;;;5045469;28;20116;-81
2021/08/03 01:27:27;;;;;;;3.90;2.05;;;16.10;1.00;;;;;;4955698;28;20039;-81
2021/08/03 01:29:53;;;;;;;3.00;2.40;;;16.00;1.00;;;;;;4968155;28;20121;-81
2021/08/03 01:32:29;;;;;;;4.03;2.33;;;16.00;1.00;;;;;;4955704;28;20050;-80
2021/08/03 01:34:57;;;;;;;3.10;2.15;;;16.00;1.00;;;;;;4970359;28;20038;-81
2021/08/03 01:37:26;;;;;;;4.97;2.35;;;15.80;1.00;;;;;;4967630;28;20047;-81
2021/08/03 01:40:08;;;;;;;4.10;2.40;;;15.90;1.00;;;;;;4966984;28;20039;-81
2021/08/03 01:42:38;;;;;;;2.58;2.20;;;15.90;1.00;;;;;;4965760;28;20594;-80
2021/08/03 01:45:06;;;;;;;4.13;2.35;;;15.90;1.00;;;;;;4968078;28;20114;-81
2021/08/03 01:47:32;;;;;;;3.53;1.98;;;15.80;1.00;;;;;;4969882;28;20480;-81
2021/08/03 01:49:59;;;;;;;4.28;2.30;;;15.90;1.00;;;;;;4970507;28;20156;-80
2021/08/03 01:52:26;;;;;;;4.25;2.47;;;16.00;1.00;;;;;;4954391;29;20067;-81
2021/08/03 01:54:53;;;;;;;3.63;2.40;;;16.00;1.00;;;;;;4964271;28;20034;-81
2021/08/03 01:57:19;;;;;;;3.00;2.10;;;16.00;1.00;;;;;;4967195;28;20027;-82
2021/08/03 01:59:46;;;;;;;4.10;2.50;;;15.90;1.00;;;;;;4969450;28;20039;-81
2021/08/03 02:02:16;;;;;;;4.60;2.35;;;15.90;1.00;;;;;;4995246;28;20037;-81
2021/08/03 02:04:42;;;;;;;2.33;2.00;;;15.90;1.00;;;;;;5059135;28;20040;-81
2021/08/03 02:07:08;;;;;;;2.42;2.10;;;15.90;1.00;;;;;;5056836;28;20025;-80
2021/08/03 02:09:36;;;;;;;2.83;2.10;;;15.80;1.00;;;;;;5057003;28;20424;-80
2021/08/03 02:12:02;;;;;;;2.65;1.98;;;15.70;1.00;;;;;;5056502;28;20489;-81
2021/08/03 02:14:27;;;;;;;4.57;2.20;;;15.70;1.00;;;;;;5050498;28;20079;-81
2021/08/03 02:16:53;;;;;;;3.72;2.20;;;15.60;1.00;;;;;;5057885;28;20392;-81
2021/08/03 02:19:19;;;;;;;2.95;1.80;;;15.60;1.00;;;;;;5056912;28;20048;-81
2021/08/03 02:21:46;;;;;;;2.50;1.90;;;15.60;1.00;;;;;;5055445;28;20029;-81
2021/08/03 02:24:13;;;;;;;4.05;2.00;;;15.80;1.00;;;;;;5056742;28;20031;-81
2021/08/03 02:26:39;;;;;;;4.82;1.90;;;15.80;1.00;;;;;;5054006;28;20017;-81
2021/08/03 02:29:06;;;;;;;4.25;2.08;;;15.70;1.00;;;;;;5055307;28;20036;-80
2021/08/03 02:31:46;;;;;;;2.47;1.90;;;15.60;1.00;;;;;;5056237;28;20028;-81
2021/08/03 02:34:14;;;;;;;3.42;1.70;;;15.60;1.00;;;;;;5056418;28;20028;-81
2021/08/03 02:36:45;;;;;;;2.80;2.03;;;15.50;1.00;;;;;;5056674;28;20400;-81
2021/08/03 02:39:13;;;;;;;3.53;1.85;;;15.60;1.00;;;;;;5056299;28;20052;-81
2021/08/03 02:41:38;;;;;;;2.22;2.05;;;15.60;1.00;;;;;;5049212;28;20037;-81
2021/08/03 02:44:06;;;;;;;4.68;2.10;;;15.60;1.00;;;;;;5054842;28;20040;-81
2021/08/03 02:46:32;;;;;;;2.63;2.20;;;15.60;1.00;;;;;;5057922;28;20111;-81
2021/08/03 02:49:08;;;;;;;2.42;2.00;;;15.60;1.00;;;;;;5056231;28;20037;-80
2021/08/03 02:51:37;;;;;;;2.60;1.77;;;15.70;1.00;;;;;;5055939;28;20404;-81
2021/08/03 02:54:18;;;;;;;5.90;2.05;;;15.70;1.00;;;;;;5056092;28;20111;-80
2021/08/03 02:56:46;;;;;;;2.03;1.90;;;15.60;1.00;;;;;;5052865;28;20033;-81
2021/08/03 02:59:15;;;;;;;4.00;2.20;;;15.60;1.00;;;;;;5053065;28;20719;-81
2021/08/03 03:01:42;;;;;;;3.08;2.20;;;15.50;1.00;;;;;;5050172;28;20041;-81
2021/08/03 03:04:24;;;;;;;3.55;2.00;;;15.50;1.00;;;;;;5055788;28;20035;-81
2021/08/03 03:06:57;;;;;;;4.78;2.10;;;15.50;1.00;;;;;;5054605;28;20037;-81
2021/08/03 03:09:25;;;;;;;2.58;2.10;;;15.50;1.00;;;;;;5055543;28;20036;-81
2021/08/03 03:11:53;;;;;;;4.38;2.00;;;15.40;1.00;;;;;;5054846;28;20028;-81
2021/08/03 03:14:22;;;;;;;4.63;2.10;;;15.40;1.00;;;;;;5051570;28;20025;-81
2021/08/03 03:16:50;;;;;;;4.35;2.20;;;15.30;1.00;;;;;;5057429;28;20029;-81
2021/08/03 03:19:19;;;;;;;2.42;1.85;;;15.30;1.00;;;;;;5055809;28;20081;-81
2021/08/03 03:21:48;;;;;;;2.33;2.13;;;15.30;1.00;;;;;;5055380;28;20025;-81
2021/08/03 03:24:15;;;;;;;3.20;2.17;;;15.20;1.00;;;;;;5054929;28;20394;-81
2021/08/03 03:26:41;;;;;;;4.30;2.20;;;15.20;1.00;;;;;;5053296;28;20029;-81
2021/08/03 03:29:09;;;;;;;3.95;1.88;;;15.10;1.00;;;;;;5052899;28;20485;-79
2021/08/03 03:31:35;;;;;;;2.28;1.90;;;15.10;1.00;;;;;;5055276;28;20044;-80
2021/08/03 03:34:06;;;;;;;3.58;2.13;;;15.10;1.00;;;;;;5055565;28;20363;-81
2021/08/03 03:36:33;;;;;;;4.13;2.05;;;15.10;1.00;;;;;;5053513;28;20031;-82
2021/08/03 03:39:01;;;;;;;2.22;2.00;;;15.10;1.00;;;;;;5053766;28;20028;-79
2021/08/03 03:41:28;;;;;;;2.70;2.00;;;15.10;1.00;;;;;;5050569;28;20038;-82
2021/08/03 03:43:53;;;;;;;2.88;1.98;;;15.10;1.00;;;;;;5056122;28;20490;-81
2021/08/03 03:46:24;;;;;;;3.60;2.00;;;15.10;1.00;;;;;;5055204;28;20044;-80
2021/08/03 03:48:52;;;;;;;2.10;1.90;;;15.10;1.00;;;;;;5054975;28;20021;-81
2021/08/03 03:51:28;;;;;;;2.80;2.30;;;15.10;1.00;;;;;;5054986;28;20024;-81
2021/08/03 03:53:58;;;;;;;3.90;2.00;;;15.20;1.00;;;;;;5054476;28;20047;-81
2021/08/03 03:56:32;;;;;;;5.10;2.10;;;15.20;1.00;;;;;;5035266;28;20405;-81
2021/08/03 03:59:03;;;;;;;2.10;1.73;;;15.10;1.00;;;;;;5054869;28;20029;-80
2021/08/03 04:01:30;;;;;;;2.20;1.80;;;15.10;1.00;;;;;;5056306;28;20036;-81
2021/08/03 04:03:59;;;;;;;3.83;2.10;;;15.10;1.00;;;;;;5054784;28;20139;-81
2021/08/03 04:06:25;;;;;;;2.72;2.03;;;15.10;1.00;;;;;;5055604;28;20045;-81
2021/08/03 04:08:51;;;;;;;3.60;2.00;;;15.20;1.00;;;;;;5053675;28;20518;-81
2021/08/03 04:11:17;;;;;;;2.78;2.10;;;15.30;1.00;;;;;;5051117;28;20056;-81
2021/08/03 04:13:44;;;;;;;2.35;1.85;;;15.30;1.00;;;;;;5056922;28;20060;-81
2021/08/03 04:16:10;;;;;;;4.53;2.10;;;15.30;1.00;;;;;;5053048;28;20111;-81
2021/08/03 04:18:36;;;;;;;3.15;2.17;;;15.30;1.00;;;;;;5052914;28;20120;-81
2021/08/03 04:21:02;;;;;;;3.03;2.00;;;15.30;1.00;;;;;;5047089;28;20123;-81
2021/08/03 04:23:28;;;;;;;2.83;1.80;;;15.30;1.00;;;;;;5049011;28;20033;-81
2021/08/03 04:25:54;;;;;;;2.28;1.98;;;15.30;1.00;;;;;;5056076;28;20485;-81
2021/08/03 04:28:19;;;;;;;2.00;1.80;;;15.30;1.00;;;;;;5054958;28;20033;-81
2021/08/03 04:30:45;;;;;;;3.97;2.15;;;15.30;1.00;;;;;;5054156;28;20112;-81
2021/08/03 04:33:10;;;;;;;2.97;1.83;;;15.30;1.00;;;;;;5054197;28;20393;-81
2021/08/03 04:35:36;;;;;;;3.97;2.00;;;15.40;1.00;;;;;;5051285;28;20017;-81
2021/08/03 04:38:02;;;;;;;2.00;1.80;;;15.40;1.00;;;;;;5053474;28;20486;-81
2021/08/03 04:40:27;;;;;;;3.13;2.10;;;15.40;1.00;;;;;;5046386;28;20048;-81
2021/08/03 04:42:53;;;;;;;3.90;1.90;;;15.40;1.00;;;;;;5054033;28;20076;-81
2021/08/03 04:45:20;;;;;;;2.08;1.90;;;15.40;1.00;;;;;;5053967;28;20045;-81
2021/08/03 04:47:50;;;;;;;3.78;2.00;;;15.40;1.00;;;;;;5052739;28;20471;-81
2021/08/03 04:50:21;;;;;;;3.47;2.50;;;15.40;1.00;;;;;;5050407;28;20025;-81
2021/08/03 04:52:46;;;;;;;4.07;2.10;;;15.50;1.00;;;;;;5054624;28;20025;-81
2021/08/03 04:55:12;;;;;;;2.95;1.90;;;15.50;1.00;;;;;;5052578;28;20497;-82
2021/08/03 04:57:38;;;;;;;2.97;1.90;;;15.40;1.00;;;;;;5052349;28;20886;-81
2021/08/03 05:00:06;;;;;;;3.88;2.08;;;15.50;1.00;;;;;;5054101;28;20111;-81
2021/08/03 05:02:32;;;;;;;3.90;1.90;;;15.60;1.00;;;;;;5049502;28;20450;-81
2021/08/03 05:04:57;;;;;;;2.42;2.10;;;15.70;1.00;;;;;;5053665;28;20103;-81
2021/08/03 05:07:23;;;;;;;3.03;2.38;;;15.80;1.00;;;;;;5045024;28;20029;-81
2021/08/03 05:09:48;;;;;;;4.72;2.20;;;15.80;1.00;;;;;;5053901;28;20111;-81
2021/08/03 05:12:14;;;;;;;3.42;2.60;;;15.70;1.00;;;;;;5053979;28;20040;-81
2021/08/03 05:14:40;;;;;;;3.05;1.92;;;15.80;1.00;;;;;;5051384;28;20504;-81
2021/08/03 05:17:05;;;;;;;2.55;2.17;;;15.70;1.00;;;;;;5052576;28;20043;-81
2021/08/03 05:19:31;;;;;;;4.15;2.33;;;15.70;1.00;;;;;;5054958;28;20036;-81
2021/08/03 05:21:56;;;;;;;2.90;2.45;;;15.70;1.00;;;;;;5043352;28;20033;-81
2021/08/03 05:24:25;;;;;;;2.55;1.95;;;15.80;1.00;;;;;;5054128;28;20024;-81
2021/08/03 05:26:55;;;;;;;4.32;1.88;;;15.80;1.00;;;;;;5053439;28;20049;-81
2021/08/03 05:29:21;;;;;;;3.42;2.20;;;15.90;1.00;;;;;;5049019;28;20040;-81
2021/08/03 05:31:47;;;;;;;3.25;2.45;;;16.00;1.00;;;;;;5055863;28;20025;-81
2021/08/03 05:34:13;;;;;;;3.72;2.08;;;16.00;1.00;;;;;;5052029;28;20033;-81
2021/08/03 05:36:39;;;;;;;2.47;2.20;;;16.00;1.00;;;;;;5054635;28;20021;-81
2021/08/03 05:39:11;;;;;;;3.70;2.35;;;16.00;1.00;;;;;;5053650;28;20101;-81
2021/08/03 05:41:37;;;;;;;3.53;2.17;;;16.20;1.00;;;;;;5051119;28;20045;-81
2021/08/03 05:44:02;;;;;;;3.42;2.00;;;16.30;1.00;;;;;;5052665;28;20076;-81
2021/08/03 05:46:28;;;;;;;3.65;2.00;;;16.40;1.00;;;;;;5054649;28;20448;-81
2021/08/03 05:48:54;;;;;;;4.55;2.08;;;16.50;1.00;;;;;;5053347;28;20040;-81
2021/08/03 05:51:19;;;;;;;4.50;2.13;;;16.50;1.00;;;;;;5053327;28;20025;-81
2021/08/03 05:53:45;;;;;;;7.32;2.88;;;16.70;1.00;;;;;;5051980;28;20021;-81
2021/08/03 05:56:11;;;;;;;2.70;2.40;;;16.60;1.00;;;;;;5050430;28;20450;-81
2021/08/03 05:58:36;;;;;;;2.35;2.00;;;16.80;1.00;;;;;;5048448;28;20124;-81
2021/08/03 06:01:02;;;;;;;3.40;2.22;;;16.70;1.00;;;;;;5052915;28;20033;-80
2021/08/03 06:03:28;;;;;;;3.55;2.20;;;16.80;1.00;;;;;;5053411;28;20033;-81
2021/08/03 06:05:53;;;;;;;3.55;2.30;;;16.90;1.00;;;;;;5056710;28;20058;-80
2021/08/03 06:08:24;;;;;;;4.15;2.60;;;16.90;1.00;;;;;;5053526;28;20048;-81
2021/08/03 06:10:53;;;;;;;5.53;3.30;;;17.00;1.00;;;;;;5065732;28;20056;-81
2021/08/03 06:13:25;;;;;;;5.70;4.60;;;17.30;1.00;;;;;;5055354;28;20017;-81
2021/08/03 06:15:51;;;;;;;4.20;3.78;;;17.40;1.00;;;;;;5055123;28;20168;-81
2021/08/03 06:18:36;;;;;;;6.32;3.40;;;17.40;1.00;;;;;;5056471;28;20032;-80
2021/08/03 06:21:02;;;;;;;5.43;3.28;;;17.60;1.00;;;;;;5055323;28;20039;-79
2021/08/03 06:23:31;;;;;;;5.40;3.28;;;17.70;1.00;;;;;;5052853;28;20025;-81
2021/08/03 06:26:00;;;;;;;4.13;3.30;;;17.70;1.00;;;;;;5057253;28;20025;-82
2021/08/03 06:28:26;;;;;;;5.32;3.00;;;17.80;1.00;;;;;;5057720;28;20556;-81
2021/08/03 06:30:53;;;;;;;6.00;2.63;;;18.00;1.00;;;;;;5056523;28;20100;-81
2021/08/03 06:33:20;;;;;;;5.03;2.67;;;17.90;1.00;;;;;;5056066;28;20116;-81
2021/08/03 06:35:47;;;;;;;3.97;2.47;;;18.00;1.00;;;;;;5054821;28;20633;-81
2021/08/03 06:38:14;;;;;;;3.58;2.30;;;18.00;1.00;;;;;;5053675;28;20040;-80
2021/08/03 06:40:46;;;;;;;5.30;2.70;;;18.20;1.00;;;;;;5058662;28;20056;-81
2021/08/03 06:43:21;;;;;;;2.47;2.22;;;18.50;1.00;;;;;;5056059;28;20525;-81
2021/08/03 06:45:52;;;;;;;3.17;2.40;;;18.70;99.90;;;;;;5056415;28;20051;-81
2021/08/03 06:48:19;;;;;;;5.05;2.20;;;18.80;99.90;;;;;;5055798;28;20394;-81
2021/08/03 06:50:53;;;;;;;3.67;2.17;;;18.70;99.90;;;;;;5053257;28;20558;-81
2021/08/03 06:53:21;;;;;;;5.00;2.10;;;18.80;99.90;;;;;;5051589;28;20109;-81
2021/08/03 06:55:47;;;;;;;4.93;2.35;;;19.00;99.90;;;;;;5057537;28;20036;-81
2021/08/03 06:59:03;;;;;;;3.55;2.47;;;19.10;99.90;;;;;;5055956;28;20072;-81
2021/08/03 07:01:43;;;;;;;4.63;2.30;;;19.20;99.90;;;;;;4973142;28;20051;-80
2021/08/03 07:04:12;;;;;;;3.40;2.60;;;18.90;99.90;;;;;;4975986;28;20031;-81
2021/08/03 07:06:43;;;;;;;5.53;1.98;;;18.90;99.90;;;;;;4975865;28;20066;-81
2021/08/03 07:09:09;;;;;;;3.35;2.40;;;18.70;99.90;;;;;;4976169;28;20030;-80
2021/08/03 07:11:37;;;;;;;4.28;2.40;;;19.00;99.90;;;;;;4973084;28;20463;-82
2021/08/03 07:14:04;;;;;;;8.18;2.75;;;19.00;99.90;;;;;;4975031;28;20085;-82
2021/08/03 07:16:30;;;;;;;4.32;2.50;;;19.20;99.90;;;;;;4975029;28;20031;-81
2021/08/03 07:18:56;;;;;;;4.65;2.53;;;19.30;99.90;;;;;;4975803;28;20553;-81
2021/08/03 07:21:26;;;;;;;5.25;2.33;;;19.40;99.90;;;;;;4975867;28;20035;-81
2021/08/03 07:23:56;;;;;;;7.28;2.42;;;19.70;99.90;;;;;;4975744;28;20023;-81
2021/08/03 07:26:23;;;;;;;5.30;2.30;;;19.80;99.90;;;;;;4971457;28;20038;-80
2021/08/03 07:28:49;;;;;;;4.43;2.25;;;20.10;99.90;;;;;;4976261;28;20069;-81
2021/08/03 07:31:15;;;;;;;4.10;2.60;;;20.30;99.90;;;;;;4975276;28;20535;-81
2021/08/03 07:33:40;;;;;;;3.30;2.20;;;20.40;99.90;;;;;;4972772;28;20078;-81
2021/08/03 07:36:06;;;;;;;5.55;2.50;;;20.50;99.90;;;;;;4977825;28;20027;-80
2021/08/03 07:38:32;;;;;;;4.78;2.63;;;20.70;99.90;;;;;;5038175;28;20041;-81
2021/08/03 07:40:58;;;;;;;4.70;2.70;;;20.50;99.90;;;;;;5055407;28;20056;-81
2021/08/03 07:43:23;;;;;;;3.10;2.65;;;20.60;99.90;;;;;;5055352;28;20094;-82
2021/08/03 07:45:49;;;;;;;4.00;2.70;;;20.60;99.90;;;;;;5054538;28;20029;-82
2021/08/03 07:48:15;;;;;;;5.30;2.65;;;20.70;99.90;;;;;;5055280;28;20025;-81
2021/08/03 07:50:41;;;;;;;4.68;2.65;;;20.80;99.90;;;;;;5052726;28;20036;-81
2021/08/03 07:53:07;;;;;;;3.58;2.40;;;21.00;99.90;;;;;;5053070;28;20940;-81
2021/08/03 07:55:33;;;;;;;6.40;4.25;;;21.30;99.90;;;;;;5056244;28;20501;-81
2021/08/03 07:57:58;;;;;;;42.38;30.38;;;21.30;99.90;;;;;;5054791;28;20021;-82
2021/08/03 08:00:24;;;;;;;8.85;4.90;;;21.50;99.90;;;;;;5054200;28;20044;-81
2021/08/03 08:02:50;;;;;;;5.78;2.60;;;21.60;99.90;;;;;;5053731;28;20025;-81
2021/08/03 08:05:16;;;;;;;3.70;2.55;;;21.80;99.90;;;;;;5051685;28;20179;-81
2021/08/03 08:07:42;;;;;;;4.22;2.95;;;21.90;99.90;;;;;;5056487;28;20036;-81
2021/08/03 08:10:08;;;;;;;4.75;2.42;;;22.00;99.90;;;;;;5053280;28;20028;-81
2021/08/03 08:12:33;;;;;;;2.83;2.28;;;22.00;99.90;;;;;;5053563;28;20027;-82
2021/08/03 08:14:59;;;;;;;3.45;2.10;;;22.10;99.90;;;;;;5054061;28;20032;-81
2021/08/03 08:17:25;;;;;;;4.90;2.60;;;22.20;99.90;;;;;;5048921;28;20108;-81
2021/08/03 08:19:50;;;;;;;5.72;5.13;;;22.30;99.90;;;;;;5063235;28;20393;-82
2021/08/03 08:22:16;;;;;;;4.28;1.98;;;22.40;99.90;;;;;;5054439;28;20083;-82
2021/08/03 08:24:42;;;;;;;2.20;1.98;;;22.70;99.90;;;;;;5054537;28;20532;-82
2021/08/03 08:27:07;;;;;;;3.88;1.90;;;22.90;99.90;;;;;;5053887;28;20443;-81
2021/08/03 08:29:33;;;;;;;3.08;1.85;;;23.10;99.90;;;;;;5050970;28;20444;-82
2021/08/03 08:31:59;;;;;;;3.05;2.10;;;23.20;99.90;;;;;;5049935;28;20033;-81
2021/08/03 08:34:24;;;;;;;3.83;2.00;;;23.40;99.90;;;;;;5055188;28;20024;-82
2021/08/03 08:36:51;;;;;;;3.22;2.13;;;23.50;99.90;;;;;;5044091;28;20112;-81
2021/08/03 08:39:17;;;;;;;2.58;1.85;;;23.30;99.90;;;;;;5054068;28;20037;-81
2021/08/03 08:45:09;;;;;;;4.70;2.17;;;23.60;99.90;;;;;;5044565;28;20051;-82
2021/08/03 08:50:12;;;;;;;3.85;1.92;;;24.10;99.90;;;;;;5687428;22;20108;-84
2021/08/03 08:52:40;;;;;;;7.45;2.20;;;24.20;99.90;;;;;;5069942;28;20031;-83
2021/08/03 08:55:08;;;;;;;2.33;2.08;;;24.30;99.90;;;;;;5069582;28;20436;-84
2021/08/03 08:57:34;;;;;;;5.78;2.33;;;24.30;99.90;;;;;;5069745;28;20028;-83
2021/08/03 08:59:59;;;;;;;5.00;2.30;;;24.50;99.90;;;;;;5052641;28;20032;-84
2021/08/03 09:02:39;;;;;;;2.40;2.10;;;24.60;99.90;;;;;;5069276;28;20526;-84
2021/08/03 09:05:07;;;;;;;6.28;2.35;;;24.70;99.90;;;;;;5067751;28;20124;-83
2021/08/03 09:07:49;;;;;;;4.43;2.17;;;24.70;99.90;;;;;;5071438;28;20392;-84
2021/08/03 09:10:38;;;;;;;3.88;2.03;;;24.90;99.90;;;;;;5069625;28;20070;-84
2021/08/03 09:13:04;;;;;;;2.75;2.28;;;25.40;99.90;;;;;;5069721;28;20028;-83
2021/08/03 09:15:31;;;;;;;5.00;1.90;;;25.10;99.90;;;;;;5069151;28;20408;-83
2021/08/03 09:18:23;;;;;;;6.45;2.22;;;25.40;99.90;;;;;;5069454;28;20510;-83
2021/08/03 09:20:49;;;;;;;5.15;2.15;;;25.70;99.90;;;;;;5056621;28;20032;-84
2021/08/03 09:23:15;;;;;;;6.10;2.22;;;25.90;99.90;;;;;;5069687;28;20054;-84
2021/08/03 09:25:52;;;;;;;6.72;2.08;;;25.70;99.90;;;;;;5071046;28;20180;-83
2021/08/03 09:28:18;;;;;;;4.30;2.20;;;25.80;99.90;;;;;;5067726;28;20087;-84
2021/08/03 09:30:44;;;;;;;3.65;1.90;;;26.20;99.90;;;;;;5068778;28;20551;-84
2021/08/03 09:33:19;;;;;;;2.42;1.80;;;26.60;99.90;;;;;;5069452;28;20029;-84
2021/08/03 09:35:45;;;;;;;3.90;2.28;;;26.80;99.90;;;;;;5070372;28;20485;-84
2021/08/03 09:38:15;;;;;;;3.55;2.20;;;26.80;99.90;;;;;;5069888;28;20058;-83
2021/08/03 09:40:40;;;;;;;4.13;2.20;;;27.10;99.90;;;;;;5074673;28;20039;-83
2021/08/03 09:43:14;;;;;;;3.63;2.20;;;27.20;99.90;;;;;;5072664;28;20032;-84
2021/08/03 09:45:42;;;;;;;3.10;1.98;;;27.10;99.90;;;;;;5073144;28;20021;-84
2021/08/03 09:48:07;;;;;;;6.78;2.22;;;27.10;99.90;;;;;;5073416;28;20033;-84
2021/08/03 09:51:00;;;;;;;1.85;1.75;;;27.00;99.90;;;;;;5073446;28;20059;-83
2021/08/03 09:53:35;;;;;;;3.58;1.70;;;27.10;99.90;;;;;;5056956;28;20108;-84
2021/08/03 09:56:00;;;;;;;3.45;1.90;;;27.40;99.90;;;;;;5073664;28;20063;-83
2021/08/03 09:58:27;;;;;;;2.45;1.92;;;27.20;99.90;;;;;;5073307;28;20040;-83
2021/08/03 10:00:53;;;;;;;3.13;1.90;;;27.10;99.90;;;;;;5072697;28;20113;-83
2021/08/03 10:03:19;;;;;;;3.67;2.38;;;26.80;99.90;;;;;;5072435;28;20020;-84
2021/08/03 10:05:46;;;;;;;2.58;2.15;;;26.50;99.90;;;;;;5071410;28;20512;-84
2021/08/03 10:08:12;;;;;;;3.30;2.10;;;26.20;99.90;;;;;;5072720;28;20497;-83
2021/08/03 10:10:38;;;;;;;4.22;2.33;;;26.30;99.90;;;;;;5072417;28;20388;-83
2021/08/03 10:13:04;;;;;;;3.22;2.28;;;25.90;99.90;;;;;;5072688;28;20025;-83
2021/08/03 10:15:29;;;;;;;3.88;2.03;;;25.60;99.90;;;;;;5072688;28;20108;-83
2021/08/03 10:17:55;;;;;;;2.33;1.92;;;25.30;99.90;;;;;;5072160;28;20119;-84
2021/08/03 10:20:21;;;;;;;7.10;2.53;;;25.50;99.90;;;;;;5054810;28;20040;-83
2021/08/03 10:23:01;;;;;;;3.38;2.10;;;25.50;99.90;;;;;;5073996;28;20380;-83
2021/08/03 10:25:39;;;;;;;2.45;2.08;;;25.30;99.90;;;;;;5071273;28;20506;-83
2021/08/03 10:28:25;;;;;;;2.30;2.05;;;25.50;99.90;;;;;;5072152;28;20027;-83
2021/08/03 10:30:51;;;;;;;3.55;2.25;;;26.00;99.90;;;;;;5071909;28;20021;-83
2021/08/03 10:33:39;;;;;;;3.13;2.00;;;26.00;99.90;;;;;;5072225;28;20127;-83
2021/08/03 10:36:05;;;;;;;3.65;2.30;;;26.30;99.90;;;;;;5072243;28;20035;-84
2021/08/03 10:38:32;;;;;;;4.72;2.00;;;26.50;99.90;;;;;;5072202;28;20404;-83
2021/08/03 10:41:02;;;;;;;2.03;1.83;;;26.60;99.90;;;;;;5073164;28;20040;-83
2021/08/03 10:43:33;;;;;;;3.08;2.20;;;26.80;99.90;;;;;;5072653;28;20021;-84
2021/08/03 10:46:08;;;;;;;3.42;2.17;;;26.90;99.90;;;;;;5070750;28;20060;-83
2021/08/03 10:48:37;;;;;;;3.80;2.35;;;27.10;99.90;;;;;;5070524;28;20024;-84
2021/08/03 10:51:18;;;;;;;3.38;2.13;;;27.00;99.90;;;;;;5071362;28;20048;-84
2021/08/03 10:54:09;;;;;;;2.20;2.00;;;26.80;99.90;;;;;;5071230;28;20074;-83
2021/08/03 10:56:56;;;;;;;2.63;1.77;;;27.00;99.90;;;;;;5037828;28;20037;-83
2021/08/03 10:59:32;;;;;;;2.13;2.00;;;27.40;99.90;;;;;;5071548;28;20033;-83
2021/08/03 11:01:59;;;;;;;2.97;2.25;;;27.80;99.90;;;;;;5069922;28;20081;-84
2021/08/03 11:04:47;;;;;;;4.93;2.17;;;28.60;99.90;;;;;;5072190;28;20088;-83
2021/08/03 11:07:25;;;;;;;2.60;1.88;;;29.00;99.90;;;;;;5071634;28;20075;-84
2021/08/03 11:10:25;;;;;;;2.30;2.00;;;29.40;99.90;;;;;;5070942;28;20028;-83
2021/08/03 11:12:52;;;;;;;2.72;1.77;;;30.20;99.90;;;;;;5072311;28;20125;-84
2021/08/03 11:15:21;;;;;;;2.58;1.90;;;30.30;99.90;;;;;;5071214;28;20485;-83
2021/08/03 11:17:59;;;;;;;2.13;1.90;;;30.50;99.90;;;;;;5071160;28;20535;-81
2021/08/03 11:20:36;;;;;;;2.95;2.05;;;31.40;99.90;;;;;;5055191;28;20053;-83
2021/08/03 11:23:04;;;;;;;1.88;1.75;;;33.50;99.90;;;;;;5068737;28;20024;-83
2021/08/03 11:25:30;;;;;;;3.00;2.38;;;31.50;99.90;;;;;;5072423;28;20028;-83
2021/08/03 11:28:06;;;;;;;2.13;1.92;;;31.00;99.90;;;;;;5069645;28;20029;-83
2021/08/03 11:30:32;;;;;;;3.15;2.13;;;31.50;99.90;;;;;;5070855;28;20025;-83
2021/08/03 11:32:57;;;;;;;3.88;1.98;;;31.00;99.90;;;;;;5070885;28;20029;-83
2021/08/03 11:35:28;;;;;;;2.33;2.13;;;31.30;99.90;;;;;;5070916;28;20087;-83
2021/08/03 11:37:54;;;;;;;2.80;2.50;;;31.30;99.90;;;;;;5068477;28;20029;-83
2021/08/03 11:40:20;;;;;;;2.58;2.30;;;30.50;99.90;;;;;;5070830;28;20036;-83
2021/08/03 11:42:47;;;;;;;2.80;2.10;;;29.70;99.90;;;;;;5070867;28;20069;-83
2021/08/03 11:45:16;;;;;;;2.90;2.28;;;29.10;99.90;;;;;;5070458;28;20028;-84
2021/08/03 11:47:51;;;;;;;2.42;2.22;;;28.90;99.90;;;;;;5076527;28;20012;-84
2021/08/03 11:50:39;;;;;;;3.28;2.45;;;29.20;99.90;;;;;;5070132;28;20505;-84
2021/08/03 11:53:05;;;;;;;3.03;2.08;;;29.70;99.90;;;;;;5080955;28;20027;-83
2021/08/03 11:55:32;;;;;;;2.40;2.20;;;30.10;99.90;;;;;;5070960;28;20115;-83
2021/08/03 11:57:58;;;;;;;2.60;2.10;;;31.60;99.90;;;;;;5069928;28;20484;-83
2021/08/03 12:00:24;;;;;;;2.35;2.10;;;31.90;99.90;;;;;;5069334;28;20033;-83
2021/08/03 12:02:56;;;;;;;2.60;2.30;;;31.10;99.90;;;;;;5067577;28;20025;-82
2021/08/03 12:05:33;;;;;;;2.50;1.95;;;30.60;99.90;;;;;;5069662;28;20040;-83
2021/08/03 12:08:04;;;;;;;2.45;2.17;;;30.30;99.90;;;;;;5067296;28;20032;-84
2021/08/03 12:10:39;;;;;;;3.30;2.30;;;30.30;99.90;;;;;;5071151;28;20027;-83
2021/08/03 12:13:10;;;;;;;2.97;2.38;;;29.50;99.90;;;;;;5069860;28;20016;-83
2021/08/03 12:15:50;;;;;;;2.90;2.63;;;28.90;99.90;;;;;;5068918;28;20050;-84
2021/08/03 12:18:17;;;;;;;2.28;2.08;;;28.70;99.90;;;;;;5069634;28;20047;-83
2021/08/03 12:20:49;;;;;;;3.13;2.50;;;28.70;99.90;;;;;;5068764;28;20032;-83
2021/08/03 12:23:31;;;;;;;3.15;2.75;;;29.10;99.90;;;;;;5071070;28;20481;-84
2021/08/03 12:26:15;;;;;;;3.63;2.40;;;29.00;99.90;;;;;;5062188;28;20119;-83
2021/08/03 12:28:43;;;;;;;3.08;2.40;;;28.80;99.90;;;;;;5069307;28;20400;-84
2021/08/03 12:31:37;;;;;;;2.60;2.40;;;28.40;99.90;;;;;;5074230;28;20393;-83
2021/08/03 12:34:21;;;;;;;2.60;2.38;;;27.90;99.90;;;;;;5068807;28;20024;-83
2021/08/03 12:36:57;;;;;;;2.90;2.60;;;27.50;99.90;;;;;;5068594;28;20031;-83
2021/08/03 12:39:41;;;;;;;2.53;2.33;;;27.60;99.90;;;;;;5068746;28;20446;-83
2021/08/03 12:44:44;;;;;;;3.70;2.70;;;27.20;99.90;;;;;;5067866;28;20045;-84
2021/08/03 12:47:18;;;;;;;3.05;2.40;;;27.00;99.90;;;;;;5053572;28;20066;-82
2021/08/03 12:49:46;;;;;;;3.50;2.50;;;26.90;99.90;;;;;;4999827;28;1987905;-84
2021/08/03 12:52:24;;;;;;;2.55;2.35;;;26.60;99.90;;;;;;5069544;28;20399;-83
2021/08/03 12:55:00;;;;;;;2.90;2.60;;;26.00;99.90;;;;;;5056193;28;20412;-83
2021/08/03 12:57:49;;;;;;;3.10;2.53;;;25.60;99.90;;;;;;5069487;28;20016;-84
2021/08/03 13:00:36;;;;;;;3.05;2.80;;;25.10;99.90;;;;;;5054454;28;20097;-83
2021/08/03 13:03:04;;;;;;;3.00;2.70;;;24.90;99.90;;;;;;5069310;28;20021;-83
2021/08/03 13:05:31;;;;;;;4.45;2.75;;;25.00;99.90;;;;;;5069759;28;20021;-83
2021/08/03 13:07:57;;;;;;;4.43;2.50;;;24.50;99.90;;;;;;5072227;28;20020;-83
2021/08/03 13:10:23;;;;;;;3.08;2.75;;;24.30;99.90;;;;;;5068410;28;20028;-83
2021/08/03 13:12:48;;;;;;;5.00;2.70;;;24.30;99.90;;;;;;5069649;28;20109;-83
2021/08/03 13:15:15;;;;;;;11.68;4.03;;;24.10;99.90;;;;;;5073407;28;20125;-83